الصفحة الرئيسية
METAR-TAF:

METAR-TAF

مطار :

بينانج, ماليزيا

دائرة عرض: 05-18N, خط طول: 100-16E, ارتفاع: 3 متر

مراقبة الطقس الحالي

تاريخ ووقت الإصدار 33 دقيقة قبل الساعة 08:00UTC
ريح 6 عقدة من الجنوب/الجنوب الغربي, الاتجاه يتراوح بين الجنوب/الجنوب الشرقي و الغرب/الجنوب الغربي
درجة الحرارة 32°درجة مئوية
الرطوبة 71%
ضغط 1006 hPa
الرؤية 10 كم أو أكثر
غيوم قليلة على ارتفاع 2000 قدم

METAR: WMKP 260800Z 20006KT 160V250 9999 FEW020 32/26 Q1006 NOSIG

زمن: 16:33 (08:33 UTC)

توقعات

تاريخ ووقت الإصدار 3ساعات و 33 دقيقة قبل الساعة 05:00UTC
التوقعات صالحة من26 الساعة 06 UTC إلى 27 الساعة 06 UTC
ريح 7 عقدة من الجنوب الغربي
الرؤية 10 كم أو أكثر
غيوم قليلة على ارتفاع 2000 قدم
أصبح
من 26 الساعة 10 UTC إلى 26 الساعة 12 UTC
ريح عقدة من الشمال
غيوم قليلة على ارتفاع 2500 قدم

TAF: WMKP 260500Z 2606/2706 23007KT 9999 FEW020 BECMG 2610/2612 00000KT FEW025

أرصاد الطقس والتوقعات من أكثر من 4000 مطار (تقارير الطقس للمطار METAR والتنبؤ بالطقس بالمطارTAF).

المحطات المتاحة هي النقط الصفراء والحمراء على الخريطة.

حرك المؤشر فوق النقطة لمعرفة اسم المحطة.

ثم انقر لمعرفة أرصاد وتوقعات الطقس.

لتغيير الخارطة: اضغط على الأزرار الخضراء مع رمز الصليب الأسود للتكبير. على الزر الأخضر مع شرطة للتصغير، أو على الأسهم الخضراء للخرائط المجاورة.


METAR-TAF: